Terminal Aerodrome Forecast
Issued by NWS

Home | Current Version | Previous Version | Text Only | Print | Product List | Glossary On
Versions: 1 2 3 4 5 6 7 8 9 10 11 12 13 14 15 16 17 18 19 20 21 22 23 24 25 26
984
FTUS43 KABR 191725
TAFPIR
TAF
KPIR 191725Z 1918/2018 01015KT 2SM -SN OVC035
     FM200200 02013G20KT 1/2SM SN OVC015
     FM200800 36010KT 2SM -SN OVC015
     FM201200 33011KT P6SM -SN OVC035=

USA.gov is the U.S. government's official web portal to all federal, state and local government web resources and services.